Time;durP1;ratioP1;P1;durP2;ratioP2;P2;SDS_P1;SDS_P2;PMS_P1;PMS_P2;Temp;Humidity;BMP_temperature;BMP_pressure;BME280_temperature;BME280_humidity;BME280_pressure;Samples;Min_cycle;Max_cycle;Signal;HPM_P1;HPM_P2
2021/08/23 00:01:07;;;;;;;8.95;4.38;;;16.70;99.90;;;;;;5128788;27;20047;-73
2021/08/23 00:03:33;;;;;;;9.18;4.38;;;16.70;99.90;;;;;;5117474;27;20047;-73
2021/08/23 00:06:00;;;;;;;9.15;4.38;;;16.70;99.90;;;;;;5117755;27;20043;-74
2021/08/23 00:08:27;;;;;;;8.05;4.35;;;16.70;99.90;;;;;;5117573;28;20039;-74
2021/08/23 00:10:53;;;;;;;15.02;4.80;;;16.70;99.90;;;;;;5116907;27;20039;-73
2021/08/23 00:13:20;;;;;;;8.38;4.45;;;16.80;99.90;;;;;;5116622;27;20065;-73
2021/08/23 00:15:51;;;;;;;10.60;4.75;;;16.70;99.90;;;;;;5117161;28;20054;-73
2021/08/23 00:18:18;;;;;;;7.05;4.47;;;16.70;99.90;;;;;;5117039;28;20059;-74
2021/08/23 00:20:51;;;;;;;8.48;4.47;;;16.70;99.90;;;;;;5116199;28;20380;-74
2021/08/23 00:23:19;;;;;;;8.70;4.90;;;16.70;99.90;;;;;;5116846;28;20054;-74
2021/08/23 00:25:45;;;;;;;8.77;4.38;;;16.80;99.90;;;;;;5117458;28;20055;-74
2021/08/23 00:28:12;;;;;;;9.73;5.50;;;16.70;99.90;;;;;;5117110;28;20051;-74
2021/08/23 00:30:38;;;;;;;8.38;5.35;;;16.70;99.90;;;;;;5116907;28;20058;-74
2021/08/23 00:33:05;;;;;;;14.70;4.82;;;16.70;99.90;;;;;;5116635;28;20440;-74
2021/08/23 00:35:31;;;;;;;7.95;4.68;;;16.70;99.90;;;;;;5116897;28;20448;-73
2021/08/23 00:37:59;;;;;;;9.20;4.22;;;16.70;99.90;;;;;;5116675;28;20056;-74
2021/08/23 00:40:26;;;;;;;10.35;4.38;;;16.70;99.90;;;;;;5117059;28;20058;-74
2021/08/23 00:42:52;;;;;;;11.77;4.90;;;16.60;99.90;;;;;;5116714;28;20058;-74
2021/08/23 00:45:20;;;;;;;7.53;4.80;;;16.60;99.90;;;;;;5116566;28;20059;-74
2021/08/23 00:47:47;;;;;;;6.88;3.58;;;16.60;99.90;;;;;;5116856;27;20062;-74
2021/08/23 00:50:13;;;;;;;8.10;4.43;;;16.60;99.90;;;;;;5116723;27;20058;-74
2021/08/23 00:52:41;;;;;;;12.90;4.95;;;16.60;99.90;;;;;;5116735;28;20043;-73
2021/08/23 00:55:07;;;;;;;10.20;4.15;;;16.60;99.90;;;;;;5117056;28;20043;-73
2021/08/23 00:57:42;;;;;;;14.07;4.45;;;16.60;99.90;;;;;;5116797;28;20062;-74
2021/08/23 01:00:12;;;;;;;8.15;4.10;;;16.50;99.90;;;;;;5117258;27;20039;-74
2021/08/23 01:02:46;;;;;;;8.55;4.40;;;16.50;99.90;;;;;;5136667;27;20374;-74
2021/08/23 01:05:31;;;;;;;6.63;3.67;;;16.50;99.90;;;;;;5136630;27;20428;-73
2021/08/23 01:08:07;;;;;;;10.35;5.80;;;16.50;99.90;;;;;;5136781;27;20047;-74
2021/08/23 01:10:44;;;;;;;9.13;4.13;;;16.40;99.90;;;;;;5137241;27;20055;-73
2021/08/23 01:13:10;;;;;;;10.88;4.65;;;16.40;99.90;;;;;;5136663;27;20046;-73
2021/08/23 01:15:37;;;;;;;10.00;4.78;;;16.30;99.90;;;;;;5136854;27;20046;-73
2021/08/23 01:18:04;;;;;;;10.25;4.40;;;16.30;99.90;;;;;;5136721;27;20416;-73
2021/08/23 01:20:41;;;;;;;8.50;4.38;;;16.10;99.90;;;;;;5136752;27;20065;-73
2021/08/23 01:23:10;;;;;;;9.38;4.45;;;16.20;99.90;;;;;;5136149;27;20444;-73
2021/08/23 01:25:39;;;;;;;12.68;4.70;;;16.30;99.90;;;;;;5136918;27;20055;-73
2021/08/23 01:28:42;;;;;;;11.65;5.32;;;16.10;99.90;;;;;;5136477;27;20626;-73
2021/08/23 01:31:15;;;;;;;9.82;4.60;;;16.10;99.90;;;;;;5136504;27;20057;-73
2021/08/23 01:33:44;;;;;;;8.60;4.15;;;16.00;99.90;;;;;;5136676;27;20050;-73
2021/08/23 01:36:11;;;;;;;12.48;4.20;;;16.00;99.90;;;;;;5136237;27;20043;-73
2021/08/23 01:38:38;;;;;;;12.75;4.53;;;16.10;99.90;;;;;;5136543;27;20035;-73
2021/08/23 01:41:07;;;;;;;9.75;4.38;;;15.90;99.90;;;;;;5135731;27;20051;-73
2021/08/23 01:43:33;;;;;;;14.07;4.72;;;15.90;99.90;;;;;;5136001;27;20460;-73
2021/08/23 01:46:00;;;;;;;10.77;5.40;;;15.80;99.90;;;;;;5135604;27;20058;-73
2021/08/23 01:48:28;;;;;;;8.05;4.35;;;15.80;99.90;;;;;;5135926;27;20050;-73
2021/08/23 01:50:55;;;;;;;11.13;4.90;;;15.90;99.90;;;;;;5136222;27;20058;-74
2021/08/23 01:53:22;;;;;;;10.32;3.78;;;15.90;99.90;;;;;;5136151;27;20047;-73
2021/08/23 01:55:48;;;;;;;8.10;3.90;;;15.80;99.90;;;;;;5135771;27;20055;-74
2021/08/23 01:58:15;;;;;;;13.35;5.50;;;15.90;99.90;;;;;;5135721;27;20070;-73
2021/08/23 02:00:41;;;;;;;14.73;5.07;;;15.80;99.90;;;;;;5130405;27;20039;-74
2021/08/23 02:03:08;;;;;;;15.23;5.35;;;15.90;99.90;;;;;;5114523;27;20047;-73
2021/08/23 02:05:34;;;;;;;9.23;4.97;;;15.90;99.90;;;;;;5114661;28;20352;-73
2021/08/23 02:08:00;;;;;;;12.20;5.28;;;15.90;99.90;;;;;;5114793;28;20058;-75
2021/08/23 02:10:27;;;;;;;10.95;5.20;;;16.00;99.90;;;;;;5114877;28;20101;-74
2021/08/23 02:12:53;;;;;;;10.15;3.65;;;16.00;99.90;;;;;;5114334;28;20063;-74
2021/08/23 02:15:19;;;;;;;12.95;4.90;;;16.10;99.90;;;;;;5114079;28;20051;-74
2021/08/23 02:17:45;;;;;;;9.07;4.15;;;16.10;99.90;;;;;;5114588;28;20051;-74
2021/08/23 02:20:13;;;;;;;9.95;4.55;;;16.10;99.90;;;;;;5113609;28;20318;-74
2021/08/23 02:22:41;;;;;;;9.32;4.50;;;16.10;99.90;;;;;;5114215;28;20047;-74
2021/08/23 02:25:09;;;;;;;10.98;4.22;;;16.20;99.90;;;;;;5113869;28;20348;-73
2021/08/23 02:27:35;;;;;;;19.83;5.63;;;16.10;99.90;;;;;;5114102;28;20062;-73
2021/08/23 02:30:02;;;;;;;13.45;4.50;;;16.10;99.90;;;;;;5114393;28;20459;-74
2021/08/23 02:32:28;;;;;;;10.70;3.95;;;16.10;99.90;;;;;;5114448;28;20048;-74
2021/08/23 02:34:55;;;;;;;9.32;4.82;;;16.10;99.90;;;;;;5114635;28;20047;-74
2021/08/23 02:37:21;;;;;;;9.38;3.85;;;16.20;99.90;;;;;;5114314;28;20342;-73
2021/08/23 02:39:48;;;;;;;12.30;5.10;;;16.20;99.90;;;;;;5113807;28;20055;-73
2021/08/23 02:42:14;;;;;;;15.25;4.55;;;16.20;99.90;;;;;;5114561;28;20043;-73
2021/08/23 02:44:40;;;;;;;10.23;4.13;;;16.30;99.90;;;;;;5114156;28;20050;-73
2021/08/23 02:47:06;;;;;;;11.20;3.85;;;16.20;99.90;;;;;;5114377;28;20451;-73
2021/08/23 02:49:32;;;;;;;7.97;3.80;;;16.20;99.90;;;;;;5114585;28;20051;-73
2021/08/23 02:51:58;;;;;;;7.88;3.80;;;16.30;99.90;;;;;;5114526;28;20050;-73
2021/08/23 02:54:25;;;;;;;11.57;4.00;;;16.30;99.90;;;;;;5114217;28;20051;-73
2021/08/23 02:56:51;;;;;;;11.25;3.88;;;16.20;99.90;;;;;;5114312;28;20039;-73
2021/08/23 02:59:18;;;;;;;5.82;3.28;;;16.30;99.90;;;;;;5114379;28;20048;-73
2021/08/23 03:01:44;;;;;;;9.68;3.67;;;16.20;99.90;;;;;;5127830;27;20051;-73
2021/08/23 03:04:10;;;;;;;15.15;3.72;;;16.30;99.90;;;;;;5134686;27;20047;-73
2021/08/23 03:06:36;;;;;;;7.00;3.42;;;16.30;99.90;;;;;;5134874;27;20046;-73
2021/08/23 03:09:03;;;;;;;11.32;3.65;;;16.30;99.90;;;;;;5134352;27;20128;-73
2021/08/23 03:11:30;;;;;;;7.03;2.88;;;16.20;99.90;;;;;;5134202;27;20343;-73
2021/08/23 03:13:57;;;;;;;9.50;3.10;;;16.20;99.90;;;;;;5134489;27;20054;-74
2021/08/23 03:16:23;;;;;;;8.38;3.42;;;16.10;99.90;;;;;;5134537;27;20043;-72
2021/08/23 03:18:49;;;;;;;11.30;3.30;;;16.10;99.90;;;;;;5134847;27;20339;-73
2021/08/23 03:21:16;;;;;;;8.85;2.95;;;16.00;99.90;;;;;;5134612;27;20054;-73
2021/08/23 03:23:43;;;;;;;7.28;3.05;;;16.00;99.90;;;;;;5134171;27;20058;-74
2021/08/23 03:26:09;;;;;;;9.70;3.00;;;16.10;99.90;;;;;;5134057;27;20055;-75
2021/08/23 03:28:35;;;;;;;9.60;2.95;;;16.00;99.90;;;;;;5134413;28;20043;-75
2021/08/23 03:31:02;;;;;;;9.55;3.45;;;15.90;99.90;;;;;;5133897;27;20430;-75
2021/08/23 03:33:29;;;;;;;8.45;2.97;;;15.90;99.90;;;;;;5137169;27;20074;-75
2021/08/23 03:35:55;;;;;;;7.93;2.80;;;15.80;99.90;;;;;;5138577;27;20347;-74
2021/08/23 03:38:21;;;;;;;7.13;3.10;;;15.80;99.90;;;;;;5136952;27;20412;-74
2021/08/23 03:40:48;;;;;;;8.93;3.40;;;15.70;99.90;;;;;;5137673;27;20059;-74
2021/08/23 03:43:14;;;;;;;13.35;3.67;;;15.70;99.90;;;;;;5138113;27;20051;-74
2021/08/23 03:45:40;;;;;;;18.40;3.70;;;15.70;99.90;;;;;;5138140;27;20047;-74
2021/08/23 03:48:06;;;;;;;8.57;2.70;;;15.80;99.90;;;;;;5138654;27;20050;-73
2021/08/23 03:50:33;;;;;;;7.72;3.17;;;15.70;99.90;;;;;;5138187;27;20055;-73
2021/08/23 03:52:59;;;;;;;11.63;3.70;;;15.70;99.90;;;;;;5138011;27;20058;-73
2021/08/23 03:55:25;;;;;;;11.30;3.33;;;15.60;99.90;;;;;;5138265;27;20035;-74
2021/08/23 03:57:51;;;;;;;10.15;3.47;;;15.60;99.90;;;;;;5137719;27;20432;-74
2021/08/23 04:00:18;;;;;;;9.10;3.63;;;15.50;99.90;;;;;;5135380;27;20066;-73
2021/08/23 04:02:47;;;;;;;9.68;3.58;;;15.50;99.90;;;;;;5117531;28;20054;-73
2021/08/23 04:05:13;;;;;;;12.27;3.55;;;15.50;99.90;;;;;;5117235;28;20062;-73
2021/08/23 04:07:40;;;;;;;7.20;3.05;;;15.50;99.90;;;;;;5117759;28;20047;-73
2021/08/23 04:10:07;;;;;;;10.90;3.45;;;15.50;99.90;;;;;;5117285;28;20058;-74
2021/08/23 04:12:33;;;;;;;9.48;2.70;;;15.40;99.90;;;;;;5117179;28;20051;-74
2021/08/23 04:15:00;;;;;;;4.80;2.40;;;15.40;99.90;;;;;;5117390;28;20047;-75
2021/08/23 04:17:27;;;;;;;7.90;3.35;;;15.30;99.90;;;;;;5117331;28;20058;-75
2021/08/23 04:19:53;;;;;;;10.65;3.25;;;15.30;99.90;;;;;;5116943;27;20067;-74
2021/08/23 04:22:19;;;;;;;7.30;3.58;;;15.30;99.90;;;;;;5117292;28;20055;-73
2021/08/23 04:24:45;;;;;;;13.23;3.38;;;15.30;99.90;;;;;;5117260;28;20059;-74
2021/08/23 04:27:11;;;;;;;9.57;3.47;;;15.30;99.90;;;;;;5116969;27;20054;-74
2021/08/23 04:29:38;;;;;;;14.52;4.03;;;15.30;99.90;;;;;;5116758;28;20058;-74
2021/08/23 04:32:05;;;;;;;7.43;3.72;;;15.30;99.90;;;;;;5116896;28;20036;-74
2021/08/23 04:34:31;;;;;;;9.27;3.70;;;15.30;99.90;;;;;;5117052;28;20043;-74
2021/08/23 04:37:03;;;;;;;9.10;3.30;;;15.30;99.90;;;;;;5117258;28;20039;-74
2021/08/23 04:39:31;;;;;;;8.98;3.42;;;15.30;99.90;;;;;;5116705;28;20050;-74
2021/08/23 04:41:57;;;;;;;11.93;3.08;;;15.30;99.90;;;;;;5116882;27;20058;-75
2021/08/23 04:44:23;;;;;;;8.23;3.10;;;15.40;99.90;;;;;;5116595;28;20051;-74
2021/08/23 04:46:50;;;;;;;11.57;3.50;;;15.30;99.90;;;;;;5116573;28;20043;-74
2021/08/23 04:49:17;;;;;;;8.68;3.22;;;15.30;99.90;;;;;;5116698;28;20416;-73
2021/08/23 04:51:43;;;;;;;13.07;3.88;;;15.30;99.90;;;;;;5116682;28;20133;-74
2021/08/23 04:54:10;;;;;;;10.07;3.25;;;15.40;99.90;;;;;;5116241;28;20047;-73
2021/08/23 04:56:36;;;;;;;8.95;3.47;;;15.30;99.90;;;;;;5116453;28;20364;-73
2021/08/23 04:59:03;;;;;;;12.68;3.45;;;15.50;99.90;;;;;;5116644;28;20044;-73
2021/08/23 05:01:29;;;;;;;10.20;3.80;;;15.40;99.90;;;;;;5128205;27;20059;-73
2021/08/23 05:03:55;;;;;;;13.38;3.35;;;15.40;99.90;;;;;;5136759;27;20051;-73
2021/08/23 05:06:22;;;;;;;14.27;3.80;;;15.40;99.90;;;;;;5136810;27;20047;-74
2021/08/23 05:08:48;;;;;;;9.68;2.92;;;15.40;99.90;;;;;;5136996;27;20047;-74
2021/08/23 05:11:14;;;;;;;9.90;3.20;;;15.50;99.90;;;;;;5136475;27;20058;-73
2021/08/23 05:13:40;;;;;;;9.35;4.03;;;15.50;99.90;;;;;;5136677;27;20054;-73
2021/08/23 05:16:06;;;;;;;6.70;3.10;;;15.50;99.90;;;;;;5136576;27;20047;-73
2021/08/23 05:18:33;;;;;;;14.65;3.67;;;15.60;99.90;;;;;;5136805;27;20443;-73
2021/08/23 05:21:03;;;;;;;8.82;3.25;;;15.60;99.90;;;;;;5136763;27;20066;-74
2021/08/23 05:23:32;;;;;;;9.20;2.92;;;15.60;99.90;;;;;;5136281;27;20448;-73
2021/08/23 05:25:58;;;;;;;8.90;3.17;;;15.70;99.90;;;;;;5136859;27;20050;-73
2021/08/23 05:28:26;;;;;;;5.78;2.70;;;15.70;99.90;;;;;;5136883;27;20047;-74
2021/08/23 05:30:52;;;;;;;8.38;3.30;;;15.70;99.90;;;;;;5136635;27;20053;-73
2021/08/23 05:33:18;;;;;;;8.40;3.03;;;15.80;99.90;;;;;;5136306;27;20408;-72
2021/08/23 05:35:45;;;;;;;11.95;3.72;;;15.90;99.90;;;;;;5136277;27;20061;-73
2021/08/23 05:38:11;;;;;;;13.93;3.38;;;15.90;99.90;;;;;;5136368;27;20051;-73
2021/08/23 05:40:37;;;;;;;6.75;2.85;;;15.90;99.90;;;;;;5136063;27;20440;-74
2021/08/23 05:43:05;;;;;;;8.70;2.88;;;16.00;99.90;;;;;;5136285;27;20043;-74
2021/08/23 05:45:31;;;;;;;9.57;3.28;;;16.00;99.90;;;;;;5136118;27;20080;-74
2021/08/23 05:47:58;;;;;;;7.82;2.92;;;16.10;99.90;;;;;;5136218;27;20062;-74
2021/08/23 05:50:24;;;;;;;7.20;3.25;;;16.10;99.90;;;;;;5136099;27;20447;-74
2021/08/23 05:52:50;;;;;;;10.10;3.58;;;16.20;99.90;;;;;;5135882;27;20047;-74
2021/08/23 05:55:17;;;;;;;10.27;3.10;;;16.20;99.90;;;;;;5134805;27;20277;-74
2021/08/23 05:57:43;;;;;;;6.55;3.30;;;16.30;99.90;;;;;;5135868;27;20043;-75
2021/08/23 06:00:10;;;;;;;7.82;3.40;;;16.40;99.90;;;;;;5134726;27;20047;-74
2021/08/23 06:02:37;;;;;;;7.95;3.10;;;16.40;99.90;;;;;;5114929;28;20055;-74
2021/08/23 06:05:03;;;;;;;12.95;3.88;;;16.40;99.90;;;;;;5115329;28;20341;-74
2021/08/23 06:07:29;;;;;;;8.80;3.25;;;16.50;99.90;;;;;;5115078;27;20043;-74
2021/08/23 06:09:56;;;;;;;15.15;5.03;;;16.50;99.90;;;;;;5115222;28;20341;-74
2021/08/23 06:12:22;;;;;;;32.65;4.70;;;16.60;99.90;;;;;;5114845;28;20050;-74
2021/08/23 06:14:48;;;;;;;16.45;3.78;;;16.70;99.90;;;;;;5114802;28;20058;-73
2021/08/23 06:17:14;;;;;;;10.35;3.10;;;16.70;99.90;;;;;;5114823;28;20052;-74
2021/08/23 06:19:40;;;;;;;20.92;4.40;;;16.80;99.90;;;;;;5115014;28;20694;-74
2021/08/23 06:22:07;;;;;;;46.03;6.93;;;16.90;99.90;;;;;;5115219;28;20328;-74
2021/08/23 06:24:33;;;;;;;14.48;4.13;;;17.00;99.90;;;;;;5114705;28;20055;-73
2021/08/23 06:26:59;;;;;;;9.60;2.88;;;17.00;99.90;;;;;;5114754;28;20332;-74
2021/08/23 06:29:25;;;;;;;9.25;3.40;;;17.10;99.90;;;;;;5114716;28;20058;-74
2021/08/23 06:31:52;;;;;;;13.00;3.40;;;17.30;99.90;;;;;;5114566;28;20048;-74
2021/08/23 06:34:21;;;;;;;7.18;2.47;;;17.30;99.90;;;;;;5114187;28;20047;-74
2021/08/23 06:36:47;;;;;;;10.98;3.00;;;17.70;99.90;;;;;;5114332;28;20314;-73
2021/08/23 06:39:13;;;;;;;9.15;2.97;;;17.40;99.90;;;;;;5114520;28;20054;-74
2021/08/23 06:41:39;;;;;;;8.73;2.80;;;17.40;99.90;;;;;;5114375;28;20044;-73
2021/08/23 06:44:07;;;;;;;7.10;2.90;;;17.50;99.90;;;;;;5114699;28;20146;-74
2021/08/23 06:46:33;;;;;;;5.57;2.47;;;17.60;99.90;;;;;;5114124;28;20048;-74
2021/08/23 06:49:00;;;;;;;12.80;3.47;;;17.70;99.90;;;;;;5114381;28;20055;-75
2021/08/23 06:51:26;;;;;;;6.72;2.50;;;17.80;99.90;;;;;;5114485;28;20044;-74
2021/08/23 06:53:53;;;;;;;9.35;3.03;;;18.00;99.90;;;;;;5114004;28;20348;-75
2021/08/23 06:56:20;;;;;;;8.48;2.60;;;18.00;99.90;;;;;;5114010;28;20058;-75
2021/08/23 06:58:46;;;;;;;5.60;2.00;;;18.20;99.90;;;;;;5114277;28;20047;-75
2021/08/23 07:01:12;;;;;;;7.75;2.10;;;18.20;99.90;;;;;;5124122;27;20043;-75
2021/08/23 07:03:39;;;;;;;7.15;2.35;;;18.30;99.90;;;;;;5134721;27;20058;-75
2021/08/23 07:06:06;;;;;;;5.80;2.20;;;18.30;99.90;;;;;;5134205;27;20051;-75
2021/08/23 07:08:36;;;;;;;10.40;2.47;;;18.40;99.90;;;;;;5134467;27;20078;-75
2021/08/23 07:11:03;;;;;;;6.30;1.75;;;18.30;99.90;;;;;;5134599;27;20047;-75
2021/08/23 07:13:29;;;;;;;7.63;1.77;;;18.30;99.90;;;;;;5134456;27;20054;-75
2021/08/23 07:16:05;;;;;;;6.70;1.85;;;18.40;99.90;;;;;;5134254;27;20046;-75
2021/08/23 07:18:32;;;;;;;5.78;1.80;;;18.50;99.90;;;;;;5133891;27;20058;-74
2021/08/23 07:21:00;;;;;;;5.03;1.90;;;18.60;99.90;;;;;;5133827;27;20050;-75
2021/08/23 07:23:27;;;;;;;4.18;1.70;;;18.60;99.90;;;;;;5134142;27;20055;-75
2021/08/23 07:26:14;;;;;;;4.53;1.65;;;18.80;99.90;;;;;;5133246;27;20082;-75
2021/08/23 07:28:40;;;;;;;8.15;2.40;;;19.00;99.90;;;;;;5134602;27;20058;-75
2021/08/23 07:31:07;;;;;;;7.72;1.83;;;19.00;99.90;;;;;;5134463;28;20447;-75
2021/08/23 07:33:33;;;;;;;4.47;1.65;;;19.10;99.90;;;;;;5133551;27;20051;-74
2021/08/23 07:35:59;;;;;;;8.85;2.08;;;19.20;99.90;;;;;;5134924;27;20425;-74
2021/08/23 07:38:26;;;;;;;4.70;1.38;;;19.30;99.90;;;;;;5136216;28;20413;-73
2021/08/23 07:40:54;;;;;;;9.30;2.05;;;19.50;99.90;;;;;;5136442;27;20051;-74
2021/08/23 07:43:21;;;;;;;9.52;3.05;;;19.50;99.90;;;;;;5135016;27;20344;-74
2021/08/23 07:45:48;;;;;;;6.93;1.65;;;19.60;99.90;;;;;;5134989;28;20058;-73
2021/08/23 07:48:14;;;;;;;5.15;1.63;;;19.70;99.90;;;;;;5135533;28;20439;-74
2021/08/23 07:50:41;;;;;;;11.85;1.75;;;19.70;99.80;;;;;;5136132;27;20047;-74
2021/08/23 07:53:07;;;;;;;8.30;1.80;;;19.90;99.70;;;;;;5136808;27;20055;-73
2021/08/23 07:55:44;;;;;;;4.72;1.40;;;20.00;99.50;;;;;;5136930;27;20333;-74
2021/08/23 07:58:15;;;;;;;6.05;1.27;;;20.10;98.80;;;;;;5135788;27;20051;-73
2021/08/23 08:00:41;;;;;;;4.78;1.65;;;20.30;98.10;;;;;;5131467;28;20065;-74
2021/08/23 08:03:08;;;;;;;4.18;1.30;;;20.30;98.10;;;;;;5116158;28;20051;-74
2021/08/23 08:05:38;;;;;;;9.93;2.03;;;20.40;97.70;;;;;;5114850;28;20071;-74
2021/08/23 08:08:08;;;;;;;4.20;1.40;;;20.40;97.50;;;;;;5115921;28;20056;-74
2021/08/23 08:10:36;;;;;;;8.75;1.90;;;20.50;97.40;;;;;;5097993;28;20051;-74
2021/08/23 08:13:06;;;;;;;5.00;1.58;;;20.60;96.30;;;;;;5114779;28;20051;-75
2021/08/23 08:15:34;;;;;;;4.43;1.63;;;20.60;96.40;;;;;;5098360;28;20052;-75
2021/08/23 08:18:01;;;;;;;5.03;1.60;;;20.70;96.10;;;;;;5098171;28;20047;-75
2021/08/23 08:20:27;;;;;;;8.32;2.33;;;20.80;96.80;;;;;;5103024;28;20375;-75
2021/08/23 08:22:54;;;;;;;7.20;1.77;;;21.10;98.40;;;;;;5102958;28;20055;-74
2021/08/23 08:25:21;;;;;;;5.47;1.45;;;21.10;96.50;;;;;;5102543;28;20055;-75
2021/08/23 08:27:49;;;;;;;4.25;1.42;;;21.30;96.50;;;;;;5102735;28;20055;-75
2021/08/23 08:30:17;;;;;;;5.38;1.48;;;21.30;95.20;;;;;;5102421;28;20054;-75
2021/08/23 08:32:46;;;;;;;6.70;1.48;;;21.40;94.60;;;;;;5102522;28;20059;-76
2021/08/23 08:35:13;;;;;;;5.93;1.23;;;21.50;95.10;;;;;;5101961;28;20048;-74
2021/08/23 08:37:42;;;;;;;4.25;1.08;;;21.60;95.00;;;;;;5101286;28;20336;-74
2021/08/23 08:40:11;;;;;;;3.33;1.20;;;21.50;92.90;;;;;;5100442;28;20056;-75
2021/08/23 08:42:43;;;;;;;3.08;1.10;;;21.30;92.40;;;;;;5101567;28;20740;-75
2021/08/23 08:45:11;;;;;;;3.13;1.20;;;21.40;92.10;;;;;;5100576;28;20356;-75
2021/08/23 08:47:41;;;;;;;3.40;1.17;;;21.80;93.00;;;;;;5100880;28;20445;-75
2021/08/23 08:50:10;;;;;;;4.63;1.10;;;21.80;91.20;;;;;;5100844;28;20052;-74
2021/08/23 08:52:39;;;;;;;2.58;1.20;;;22.00;93.00;;;;;;5118195;28;20066;-75
2021/08/23 08:55:08;;;;;;;3.20;1.20;;;21.90;90.40;;;;;;5100618;28;20056;-76
2021/08/23 08:57:35;;;;;;;3.95;1.20;;;22.10;91.90;;;;;;5118656;28;20040;-75
2021/08/23 09:00:02;;;;;;;3.35;1.23;;;22.10;91.50;;;;;;5099581;28;20051;-75
2021/08/23 09:02:30;;;;;;;3.13;1.00;;;22.30;91.10;;;;;;5100250;28;20048;-74
2021/08/23 09:04:58;;;;;;;3.03;0.98;;;22.30;90.30;;;;;;5100205;28;20074;-75
2021/08/23 09:07:48;;;;;;;3.25;1.38;;;21.70;89.80;;;;;;5115711;28;20063;-75
2021/08/23 09:10:18;;;;;;;2.72;0.90;;;22.70;90.10;;;;;;5116707;28;20508;-75
2021/08/23 09:12:44;;;;;;;2.05;0.85;;;22.90;90.70;;;;;;5115869;28;20459;-74
2021/08/23 09:15:10;;;;;;;2.67;1.02;;;22.80;88.60;;;;;;5115767;28;20037;-75
2021/08/23 09:17:37;;;;;;;3.50;1.00;;;22.80;87.60;;;;;;5116100;27;20058;-74
2021/08/23 09:20:06;;;;;;;4.32;1.10;;;22.90;86.90;;;;;;5115848;28;20056;-75
2021/08/23 09:22:41;;;;;;;3.90;0.95;;;23.00;85.60;;;;;;5115977;28;20051;-75
2021/08/23 09:25:13;;;;;;;4.20;1.13;;;23.20;87.30;;;;;;5115897;28;20051;-75
2021/08/23 09:28:04;;;;;;;2.88;1.10;;;23.20;84.70;;;;;;5116116;28;20352;-75
2021/08/23 09:30:31;;;;;;;4.78;0.82;;;23.30;83.60;;;;;;5115372;28;20044;-75
2021/08/23 09:33:04;;;;;;;3.30;1.02;;;23.50;82.90;;;;;;5116001;28;20040;-75
2021/08/23 09:35:52;;;;;;;5.88;1.27;;;23.50;80.40;;;;;;5114725;28;20047;-75
2021/08/23 09:38:28;;;;;;;2.60;1.15;;;23.50;82.40;;;;;;5116238;28;20047;-75
2021/08/23 09:41:04;;;;;;;4.03;1.33;;;23.70;83.90;;;;;;5115658;28;20064;-75
2021/08/23 09:43:35;;;;;;;2.38;1.00;;;23.80;83.00;;;;;;5115765;28;20044;-75
2021/08/23 09:46:11;;;;;;;5.40;1.10;;;24.00;80.80;;;;;;5115679;28;20055;-74
2021/08/23 09:48:49;;;;;;;4.28;1.35;;;24.10;82.40;;;;;;5115578;28;20385;-75
2021/08/23 09:51:27;;;;;;;4.03;1.33;;;24.30;81.80;;;;;;5115405;28;20051;-75
2021/08/23 09:54:06;;;;;;;4.30;1.42;;;24.60;75.20;;;;;;5115805;28;20044;-75
2021/08/23 09:56:35;;;;;;;7.10;1.10;;;24.70;78.50;;;;;;5115733;28;20043;-75
2021/08/23 09:59:05;;;;;;;2.63;1.30;;;24.80;74.90;;;;;;5115577;28;20047;-76
2021/08/23 10:01:33;;;;;;;4.25;0.95;;;25.10;76.50;;;;;;5128088;27;20444;-75
2021/08/23 10:04:06;;;;;;;4.28;1.20;;;25.20;76.40;;;;;;5135668;27;20428;-75
2021/08/23 10:06:33;;;;;;;2.55;1.20;;;25.30;74.80;;;;;;5135614;27;20082;-75
2021/08/23 10:09:04;;;;;;;6.78;1.20;;;25.30;71.30;;;;;;5135971;27;20426;-75
2021/08/23 10:11:35;;;;;;;4.55;1.00;;;25.50;71.00;;;;;;5135389;27;20047;-75
2021/08/23 10:14:02;;;;;;;2.80;1.05;;;25.60;72.30;;;;;;5135756;27;20050;-74
2021/08/23 10:16:30;;;;;;;5.00;1.27;;;25.70;69.90;;;;;;5135721;27;20047;-75
2021/08/23 10:18:57;;;;;;;6.38;1.23;;;25.90;64.20;;;;;;5134298;27;20066;-74
2021/08/23 10:21:25;;;;;;;3.03;1.25;;;25.90;67.80;;;;;;5135663;27;20050;-75
2021/08/23 10:23:53;;;;;;;4.47;1.30;;;25.90;70.70;;;;;;5135240;27;20047;-74
2021/08/23 10:26:20;;;;;;;3.15;1.17;;;26.00;67.30;;;;;;5135009;27;20054;-74
2021/08/23 10:28:49;;;;;;;4.70;1.02;;;26.10;64.70;;;;;;5135077;27;20035;-74
2021/08/23 10:31:18;;;;;;;2.58;1.10;;;26.30;62.50;;;;;;5135094;27;20051;-75
2021/08/23 10:33:46;;;;;;;3.60;1.23;;;26.40;64.80;;;;;;5135366;27;20050;-74
2021/08/23 10:36:16;;;;;;;3.78;1.13;;;26.50;64.00;;;;;;5135575;27;20761;-75
2021/08/23 10:38:48;;;;;;;3.63;1.30;;;26.50;64.20;;;;;;5135098;27;20039;-75
2021/08/23 10:41:26;;;;;;;5.25;1.65;;;26.70;60.00;;;;;;5134880;27;20451;-75
2021/08/23 10:43:58;;;;;;;3.08;1.50;;;26.80;60.40;;;;;;5135575;27;20081;-75
2021/08/23 10:46:36;;;;;;;3.35;1.52;;;26.70;61.80;;;;;;5135513;27;20053;-75
2021/08/23 10:49:11;;;;;;;3.58;1.60;;;27.50;61.20;;;;;;5134589;27;20053;-75
2021/08/23 10:51:39;;;;;;;4.88;1.25;;;27.20;54.50;;;;;;5135435;27;20101;-75
2021/08/23 10:54:24;;;;;;;5.72;1.83;;;27.30;58.70;;;;;;5134625;27;20340;-75
2021/08/23 10:56:59;;;;;;;4.07;1.38;;;27.60;59.40;;;;;;5134869;27;20047;-76
2021/08/23 10:59:36;;;;;;;3.17;1.55;;;28.00;59.20;;;;;;5135008;27;20050;-76
2021/08/23 11:02:03;;;;;;;4.03;1.40;;;28.10;60.80;;;;;;5117152;27;20048;-76
2021/08/23 11:04:39;;;;;;;3.05;1.20;;;28.20;56.20;;;;;;5113910;28;20142;-75
2021/08/23 11:07:08;;;;;;;2.58;1.20;;;28.10;54.40;;;;;;5113687;28;20047;-75
2021/08/23 11:09:42;;;;;;;6.10;1.40;;;28.10;54.80;;;;;;5113816;28;20055;-75
2021/08/23 11:12:26;;;;;;;7.70;1.88;;;28.00;54.30;;;;;;5113943;28;20043;-76
2021/08/23 11:14:54;;;;;;;1.30;0.98;;;28.70;55.80;;;;;;5113721;28;20074;-76
2021/08/23 11:17:31;;;;;;;2.60;1.00;;;29.10;55.50;;;;;;5114055;28;20058;-76
2021/08/23 11:20:00;;;;;;;2.40;1.15;;;29.40;56.60;;;;;;5113257;28;20059;-76
2021/08/23 11:22:29;;;;;;;4.72;1.00;;;29.30;52.90;;;;;;5114236;28;20054;-76
2021/08/23 11:24:55;;;;;;;4.25;1.23;;;29.70;54.00;;;;;;5113876;28;20337;-76
2021/08/23 11:27:22;;;;;;;1.70;0.80;;;29.20;54.00;;;;;;5113596;28;20427;-75
2021/08/23 11:29:52;;;;;;;4.57;1.88;;;29.50;52.90;;;;;;5113983;28;20070;-75
2021/08/23 11:32:24;;;;;;;3.13;1.10;;;29.80;53.30;;;;;;5113665;28;20427;-75
2021/08/23 11:34:52;;;;;;;5.20;1.40;;;29.80;54.90;;;;;;5113569;28;20075;-75
2021/08/23 11:37:23;;;;;;;4.75;1.20;;;30.00;53.80;;;;;;5113489;28;20478;-76
2021/08/23 11:40:01;;;;;;;6.75;1.30;;;29.50;53.00;;;;;;5113393;28;20052;-75
2021/08/23 11:42:27;;;;;;;6.90;1.10;;;30.10;55.10;;;;;;5113946;28;20075;-76
2021/08/23 11:44:54;;;;;;;2.85;1.45;;;30.20;55.60;;;;;;5113638;28;20587;-74
2021/08/23 11:47:33;;;;;;;9.35;1.55;;;29.90;53.50;;;;;;5113826;28;20443;-75
2021/08/23 11:50:00;;;;;;;2.63;0.88;;;30.30;54.40;;;;;;5112859;28;20051;-75
2021/08/23 11:52:28;;;;;;;3.78;1.45;;;30.30;56.40;;;;;;5113784;28;20055;-75
2021/08/23 11:54:57;;;;;;;4.88;2.13;;;30.50;54.50;;;;;;5117433;28;20082;-75
2021/08/23 11:57:26;;;;;;;4.90;1.33;;;30.70;52.90;;;;;;5117645;27;20052;-75
2021/08/23 12:00:01;;;;;;;9.88;2.00;;;30.60;52.30;;;;;;5117308;28;20056;-75
2021/08/23 12:02:37;;;;;;;3.67;1.30;;;30.80;53.50;;;;;;5117376;27;20052;-75
2021/08/23 12:05:08;;;;;;;2.10;0.90;;;31.20;52.60;;;;;;5116740;28;20428;-76
2021/08/23 12:07:45;;;;;;;7.68;1.98;;;31.30;52.50;;;;;;5117392;27;20047;-75
2021/08/23 12:10:32;;;;;;;7.95;1.27;;;31.20;49.90;;;;;;5117147;28;20055;-76
2021/08/23 12:13:12;;;;;;;4.07;1.42;;;31.10;51.40;;;;;;5117524;28;20332;-76
2021/08/23 12:15:51;;;;;;;4.95;1.13;;;31.40;54.50;;;;;;5118049;27;20443;-76
2021/08/23 12:18:18;;;;;;;6.97;1.88;;;30.80;49.60;;;;;;5117436;28;20054;-76
2021/08/23 12:21:04;;;;;;;2.85;1.10;;;30.40;50.90;;;;;;5117036;28;20052;-75
2021/08/23 12:24:00;;;;;;;3.00;1.13;;;31.00;52.80;;;;;;5117165;28;20047;-75
2021/08/23 12:26:28;;;;;;;7.13;1.48;;;31.10;50.70;;;;;;5117470;28;20066;-74
2021/08/23 12:28:58;;;;;;;5.88;1.48;;;31.20;52.10;;;;;;5117265;28;20046;-75
2021/08/23 12:31:26;;;;;;;3.22;1.02;;;31.50;52.10;;;;;;5115911;28;20314;-75
2021/08/23 12:33:52;;;;;;;4.35;1.17;;;32.10;51.40;;;;;;5117055;28;20436;-74
2021/08/23 12:36:18;;;;;;;6.85;1.67;;;32.30;49.90;;;;;;5116675;28;20372;-75
2021/08/23 12:38:46;;;;;;;3.05;1.15;;;32.70;48.90;;;;;;5116730;28;20051;-75
2021/08/23 12:41:12;;;;;;;3.13;1.40;;;33.00;48.60;;;;;;5116301;28;20039;-75
2021/08/23 12:43:41;;;;;;;7.03;1.48;;;32.80;46.50;;;;;;5117227;28;20039;-75
2021/08/23 12:46:07;;;;;;;5.20;1.38;;;32.60;47.20;;;;;;5116650;28;20397;-75
2021/08/23 12:48:34;;;;;;;5.43;1.20;;;32.50;46.80;;;;;;5117260;28;20051;-76
2021/08/23 12:51:03;;;;;;;9.10;1.60;;;32.70;47.50;;;;;;5116359;28;20052;-76
2021/08/23 12:53:29;;;;;;;3.92;1.58;;;33.20;45.50;;;;;;5115133;28;20055;-75